KVNYKPRB

Guest
Details From KVNY - Van Nuys
To KPRB - PASO ROBLES MUNI
Flight Number -
Tags generated
Created
Modified
Stats Distance 137 nm / 254 km
Max Altitude 14,900 ft / 4,542 m
Waypoints 3
Social Downloads 0
Likes 0
Share VATSIM

Download

Looking for another format? Having issues loading an existing format? Contact us
Advertisement - Login to hide

Notes

Basic altitude profile: - Ascent Rate: 2500ft/min - Ascent Speed: 109kts - Cruise Altitude: 35000ft - Cruise Speed: 109kts - Descent Rate: 1500ft/min - Descent Speed: 109kts Options: - Use NATs: yes - Use PACOTS: yes - Use low airways: yes - Use high airways: no

Route

KVNY REYES KPRB

ID Type Via Altitude Latitude Longitude Leg Dist Tot Dist Heading (true) Name
O KVNY APT - 0 ft / 0 m 34.21072˚ -118.48984˚ - 0 nm - Van Nuys
REYES FIX - 14,900 ft / 4,542 m 34.65873˚ -119.13432˚ 41 nm 41 nm 310° / 310° -
O KPRB APT - 0 ft / 0 m 35.67281˚ -120.62656˚ 95 nm 137 nm 310° / 309° PASO ROBLES MUNI

Altitude Profile

Advertisement - Login to hide

KVNY

Details ICAO KVNY (VNY)
Name Van Nuys
Region United States
Timezone America/Los_Angeles (UTC-8.0)
Stats Elevation 802 ft / 244 m (AMSL)
Location 34.210723° -118.489841°
Runways 2
Magnetic Variation 12.075° E

METAR

KVNY 111251Z AUTO 31004KT 10SM CLR 12/M10 A3017 RMK AO2 SLP209 T01221100

Decode

TAF

KVNY 111133Z 1112/1212 VRB03KT P6SM BKN250 FM111500 36008KT P6SM BKN250

Decode

Departure Runways

ID Width Length Bearing (true) Bearing (mag) Surface Threshold Offset Overrun Length
16L 75 ft / 23 m 4,021 ft / 1,226 m 175.53° 163.45° Asphalt 1,430 ft / 436 m 0 ft / 0 m
16R 151 ft / 46 m 8,022 ft / 2,445 m 175.54° 163.46° Asphalt 1,430 ft / 436 m 151 ft / 46 m
34L 151 ft / 46 m 8,022 ft / 2,445 m 355.54° 343.46° Asphalt 0 ft / 0 m 151 ft / 46 m
34R 75 ft / 23 m 4,021 ft / 1,226 m 355.53° 343.45° Asphalt 0 ft / 0 m 0 ft / 0 m

KPRB

Details ICAO KPRB
Name PASO ROBLES MUNI
Region United States
Timezone America/Los_Angeles (UTC-8.0)
Stats Elevation 836 ft / 255 m (AMSL)
Location 35.672813° -120.626559°
Runways 2
Magnetic Variation 12.767° E

METAR

KPRB 111253Z AUTO 00000KT 10SM CLR 01/M08 A3027 RMK AO2 SLP250 T00061083

Decode

TAF

TAF KPRB 111133Z 1112/1212 VRB03KT P6SM BKN250 FM112300 11008KT P6SM BKN250 FM120400 VRB03KT P6SM BKN250

Decode

Destination Runways

ID Width Length Bearing (true) Bearing (mag) Surface Threshold Offset Overrun Length
01 150 ft / 46 m 6,016 ft / 1,834 m 28.54° 15.77° Asphalt 0 ft / 0 m 0 ft / 0 m
13 100 ft / 30 m 4,704 ft / 1,434 m 143.77° 131.00° Asphalt 0 ft / 0 m 0 ft / 0 m
19 150 ft / 46 m 6,016 ft / 1,834 m 208.54° 195.77° Asphalt 0 ft / 0 m 0 ft / 0 m
31 100 ft / 30 m 4,704 ft / 1,434 m 323.77° 311.00° Asphalt 0 ft / 0 m 0 ft / 0 m